Time;durP1;ratioP1;P1;durP2;ratioP2;P2;SDS_P1;SDS_P2;PMS_P1;PMS_P2;Temp;Humidity;BMP_temperature;BMP_pressure;BME280_temperature;BME280_humidity;BME280_pressure;Samples;Min_cycle;Max_cycle;Signal;HPM_P1;HPM_P2
2023/10/26 00:01:37;;;;;;;42.95;25.08;;;;;;;;;;5101468;28;20402;-76
2023/10/26 00:04:03;;;;;;;45.83;26.35;;;;;;;;;;5101756;27;21035;-77
2023/10/26 00:06:29;;;;;;;46.77;27.30;;;;;;;;;;5103575;28;20827;-76
2023/10/26 00:08:55;;;;;;;44.25;25.55;;;;;;;;;;5099968;27;20409;-76
2023/10/26 00:11:22;;;;;;;49.05;29.23;;;;;;;;;;5112323;27;20401;-77
2023/10/26 00:13:48;;;;;;;47.85;25.00;;;;;;;;;;5100290;27;20474;-76
2023/10/26 00:16:14;;;;;;;42.60;24.42;;;;;;;;;;5096546;28;20412;-77
2023/10/26 00:18:40;;;;;;;39.83;23.60;;;;;;;;;;5113531;27;20413;-77
2023/10/26 00:21:06;;;;;;;42.15;24.33;;;;;;;;;;5129358;27;20406;-77
2023/10/26 00:23:32;;;;;;;42.28;24.13;;;;;;;;;;5076370;28;20425;-77
2023/10/26 00:25:58;;;;;;;42.30;23.60;;;;;;;;;;5093099;28;20494;-77
2023/10/26 00:28:24;;;;;;;40.08;23.60;;;;;;;;;;5107750;28;20392;-77
2023/10/26 00:30:50;;;;;;;41.93;23.93;;;;;;;;;;5095989;28;20403;-77
2023/10/26 00:33:17;;;;;;;41.50;24.05;;;;;;;;;;5103478;28;20408;-77
2023/10/26 00:35:43;;;;;;;44.72;23.52;;;;;;;;;;5096368;27;20438;-77
2023/10/26 00:38:09;;;;;;;41.13;23.50;;;;;;;;;;5078115;28;20396;-76
2023/10/26 00:40:35;;;;;;;46.08;25.13;;;;;;;;;;5106844;27;20419;-77
2023/10/26 00:43:04;;;;;;;47.72;24.60;;;10.10;99.90;;;;;;5108516;28;20396;-76
2023/10/26 00:45:34;;;;;;;43.60;24.70;;;10.10;99.90;;;;;;5112560;28;20499;-77
2023/10/26 00:48:00;;;;;;;48.17;25.25;;;;;;;;;;5096251;28;20404;-76
2023/10/26 00:50:26;;;;;;;44.85;24.90;;;;;;;;;;5079930;28;20945;-76
2023/10/26 00:52:53;;;;;;;47.25;25.33;;;;;;;;;;5080965;28;20894;-77
2023/10/26 00:55:19;;;;;;;49.73;25.03;;;;;;;;;;5100397;27;20476;-76
2023/10/26 00:57:46;;;;;;;45.88;23.80;;;;;;;;;;5126289;27;20403;-77
2023/10/26 01:00:12;;;;;;;48.47;25.67;;;;;;;;;;5101624;28;20906;-76
2023/10/26 01:02:39;;;;;;;43.92;25.05;;;9.90;99.90;;;;;;5095437;28;20407;-76
2023/10/26 01:05:05;;;;;;;48.15;25.75;;;;;;;;;;5083990;27;20398;-77
2023/10/26 01:07:31;;;;;;;55.33;26.30;;;;;;;;;;5117682;27;20406;-77
2023/10/26 01:09:58;;;;;;;49.55;25.00;;;;;;;;;;5116350;27;20411;-77
2023/10/26 01:12:24;;;;;;;48.28;25.70;;;;;;;;;;5114313;27;20418;-76
2023/10/26 01:14:50;;;;;;;49.95;25.75;;;;;;;;;;5075748;28;20474;-77
2023/10/26 01:17:16;;;;;;;55.55;26.88;;;;;;;;;;5100894;27;20424;-76
2023/10/26 01:19:43;;;;;;;59.75;26.95;;;;;;;;;;5072824;28;20746;-76
2023/10/26 01:22:10;;;;;;;55.67;26.48;;;;;;;;;;5095180;28;20943;-77
2023/10/26 01:24:36;;;;;;;53.55;26.95;;;;;;;;;;5098787;28;20400;-77
2023/10/26 01:27:04;;;;;;;58.25;27.67;;;;;;;;;;5112596;28;20432;-76
2023/10/26 01:29:30;;;;;;;59.40;27.98;;;;;;;;;;5097637;28;20423;-76
2023/10/26 01:31:56;;;;;;;64.85;29.60;;;;;;;;;;5088663;28;20406;-76
2023/10/26 01:34:22;;;;;;;62.45;30.23;;;;;;;;;;5094529;28;20431;-76
2023/10/26 01:36:48;;;;;;;66.72;30.63;;;;;;;;;;5113359;27;20411;-76
2023/10/26 01:39:16;;;;;;;63.63;30.52;;;;;;;;;;5100196;28;20396;-76
2023/10/26 01:41:42;;;;;;;72.43;32.35;;;;;;;;;;5120495;27;20889;-76
2023/10/26 01:44:08;;;;;;;69.50;32.43;;;;;;;;;;5115171;27;20437;-76
2023/10/26 01:46:34;;;;;;;74.93;33.38;;;;;;;;;;5103326;28;20415;-77
2023/10/26 01:49:01;;;;;;;70.40;33.17;;;;;;;;;;5127021;27;20402;-76
2023/10/26 01:51:27;;;;;;;75.50;33.92;;;;;;;;;;5095847;27;20400;-76
2023/10/26 01:53:53;;;;;;;86.53;35.07;;;;;;;;;;5111308;28;20502;-76
2023/10/26 01:56:20;;;;;;;80.15;34.45;;;;;;;;;;5094175;28;20456;-76
2023/10/26 01:58:46;;;;;;;77.78;34.53;;;;;;;;;;5094891;28;20392;-76
2023/10/26 02:01:12;;;;;;;75.90;35.47;;;9.80;99.90;;;;;;5094948;27;20460;-76
2023/10/26 02:03:38;;;;;;;84.90;36.22;;;;;;;;;;5089735;28;20408;-76
2023/10/26 02:06:04;;;;;;;84.10;35.30;;;;;;;;;;5077514;28;20404;-76
2023/10/26 02:08:31;;;;;;;87.05;36.78;;;;;;;;;;5093943;28;20456;-76
2023/10/26 02:10:57;;;;;;;85.75;36.67;;;;;;;;;;5094678;28;20404;-77
2023/10/26 02:13:23;;;;;;;93.65;36.90;;;;;;;;;;5110780;27;20400;-76
2023/10/26 02:15:49;;;;;;;93.25;38.60;;;;;;;;;;5088289;28;20427;-76
2023/10/26 02:18:15;;;;;;;90.97;38.35;;;;;;;;;;5103342;27;20406;-76
2023/10/26 02:20:41;;;;;;;91.60;37.90;;;;;;;;;;5094957;28;20776;-76
2023/10/26 02:23:08;;;;;;;97.85;40.42;;;9.50;99.90;;;;;;5116931;27;20396;-76
2023/10/26 02:25:34;;;;;;;105.03;40.05;;;;;;;;;;5119493;27;20400;-76
2023/10/26 02:28:00;;;;;;;99.63;40.05;;;;;;;;;;5111174;28;20487;-76
2023/10/26 02:30:26;;;;;;;111.38;41.42;;;;;;;;;;5111396;28;20401;-76
2023/10/26 02:32:52;;;;;;;101.10;40.30;;;;;;;;;;5108504;28;20400;-76
2023/10/26 02:35:20;;;;;;;111.30;41.00;;;;;;;;;;5102563;27;20820;-76
2023/10/26 02:37:47;;;;;;;104.10;41.07;;;;;;;;;;5125298;27;20509;-76
2023/10/26 02:40:13;;;;;;;103.40;41.28;;;;;;;;;;5101561;27;20398;-76
2023/10/26 02:42:39;;;;;;;106.07;41.60;;;;;;;;;;5116028;27;20479;-76
2023/10/26 02:45:09;;;;;;;109.15;41.78;;;9.90;99.90;;;;;;5094045;28;20417;-76
2023/10/26 02:47:37;;;;;;;110.18;44.58;;;;;;;;;;5085037;28;20809;-76
2023/10/26 02:50:03;;;;;;;110.20;42.15;;;;;;;;;;5114551;27;20404;-76
2023/10/26 02:52:29;;;;;;;113.40;43.25;;;;;;;;;;5086620;28;20406;-76
2023/10/26 02:54:55;;;;;;;118.38;43.75;;;;;;;;;;5098922;28;20423;-76
2023/10/26 02:57:21;;;;;;;120.22;43.13;;;;;;;;;;5116267;28;20424;-76
2023/10/26 02:59:47;;;;;;;125.07;43.40;;;;;;;;;;5082435;28;20404;-77
2023/10/26 03:02:13;;;;;;;122.25;42.67;;;;;;;;;;5114824;28;20392;-75
2023/10/26 03:04:40;;;;;;;132.07;43.50;;;;;;;;;;5113917;28;20412;-76
2023/10/26 03:07:07;;;;;;;129.82;44.15;;;;;;;;;;5129986;27;20455;-77
2023/10/26 03:09:33;;;;;;;123.70;44.27;;;;;;;;;;5105580;28;20485;-76
2023/10/26 03:11:59;;;;;;;144.02;45.42;;;;;;;;;;5093586;28;20402;-76
2023/10/26 03:14:25;;;;;;;142.70;46.70;;;;;;;;;;5106941;28;20772;-76
2023/10/26 03:16:51;;;;;;;140.33;46.07;;;;;;;;;;5093424;28;20911;-77
2023/10/26 03:19:17;;;;;;;137.07;46.20;;;;;;;;;;5110203;28;20967;-77
2023/10/26 03:21:43;;;;;;;142.23;45.70;;;;;;;;;;5079637;28;20490;-76
2023/10/26 03:24:09;;;;;;;143.45;47.35;;;;;;;;;;5110131;28;20826;-77
2023/10/26 03:26:35;;;;;;;133.02;45.00;;;;;;;;;;5090319;28;20422;-77
2023/10/26 03:29:02;;;;;;;130.93;45.28;;;;;;;;;;5110993;28;20404;-77
2023/10/26 03:31:28;;;;;;;151.43;48.35;;;;;;;;;;5092124;28;20408;-83
2023/10/26 03:33:54;;;;;;;153.10;47.42;;;;;;;;;;5110127;28;20399;-83
2023/10/26 03:36:21;;;;;;;137.73;45.83;;;;;;;;;;5113698;28;20396;-83
2023/10/26 03:38:49;;;;;;;141.73;47.90;;;;;;;;;;5093273;28;20393;-83
2023/10/26 03:41:16;;;;;;;152.98;48.78;;;;;;;;;;5098064;28;20394;-82
2023/10/26 03:43:42;;;;;;;144.38;46.30;;;;;;;;;;5128132;28;20766;-77
2023/10/26 03:46:08;;;;;;;148.98;48.17;;;;;;;;;;5093710;28;20424;-77
2023/10/26 03:48:35;;;;;;;159.95;47.08;;;;;;;;;;5113762;28;20403;-77
2023/10/26 03:51:01;;;;;;;148.50;47.25;;;;;;;;;;5096825;28;20408;-77
2023/10/26 03:53:28;;;;;;;152.13;49.30;;;;;;;;;;5119366;27;20400;-77
2023/10/26 03:55:55;;;;;;;117.03;42.72;;;;;;;;;;5096077;28;20420;-77
2023/10/26 03:58:21;;;;;;;147.20;47.17;;;;;;;;;;5095536;28;20393;-76
2023/10/26 04:00:48;;;;;;;147.67;47.83;;;;;;;;;;5093347;28;20996;-76
2023/10/26 04:03:14;;;;;;;131.75;47.15;;;;;;;;;;5122466;27;20459;-76
2023/10/26 04:05:40;;;;;;;139.55;47.60;;;9.70;99.90;;;;;;5117994;27;20776;-76
2023/10/26 04:08:07;;;;;;;136.98;46.38;;;;;;;;;;5112826;28;20404;-77
2023/10/26 04:10:34;;;;;;;147.15;47.65;;;;;;;;;;5112393;27;20404;-77
2023/10/26 04:13:00;;;;;;;145.13;47.35;;;;;;;;;;5079520;28;20449;-76
2023/10/26 04:15:26;;;;;;;154.33;47.37;;;;;;;;;;5107206;27;20507;-76
2023/10/26 04:17:52;;;;;;;157.48;49.22;;;;;;;;;;5120735;27;20411;-76
2023/10/26 04:20:20;;;;;;;135.73;47.03;;;;;;;;;;5117330;27;20745;-76
2023/10/26 04:22:46;;;;;;;146.43;48.15;;;;;;;;;;5131597;27;20394;-76
2023/10/26 04:25:13;;;;;;;142.50;46.95;;;;;;;;;;5099852;27;20758;-76
2023/10/26 04:27:39;;;;;;;178.40;50.95;;;;;;;;;;5098272;27;20405;-75
2023/10/26 04:30:06;;;;;;;183.10;50.83;;;;;;;;;;5101897;27;20491;-77
2023/10/26 04:32:32;;;;;;;206.68;53.42;;;;;;;;;;5113298;27;20760;-76
2023/10/26 04:34:59;;;;;;;194.10;52.80;;;;;;;;;;5099683;27;20513;-77
2023/10/26 04:37:25;;;;;;;145.67;48.33;;;;;;;;;;5102665;27;20410;-77
2023/10/26 04:39:51;;;;;;;214.10;52.65;;;;;;;;;;5111002;27;20399;-77
2023/10/26 04:42:18;;;;;;;186.10;51.88;;;;;;;;;;5111897;27;20397;-83
2023/10/26 04:44:44;;;;;;;381.08;60.70;;;;;;;;;;5102552;27;20908;-83
2023/10/26 04:47:10;;;;;;;530.95;68.00;;;;;;;;;;5097044;27;20410;-83
2023/10/26 04:49:36;;;;;;;703.70;79.00;;;;;;;;;;5094046;27;20414;-83
2023/10/26 04:52:02;;;;;;;417.57;63.03;;;;;;;;;;5099451;27;20399;-83
2023/10/26 04:54:29;;;;;;;972.28;95.50;;;;;;;;;;5118259;27;20410;-83
2023/10/26 04:56:55;;;;;;;810.63;89.72;;;;;;;;;;5099153;28;20434;-83
2023/10/26 04:59:21;;;;;;;1003.35;95.25;;;;;;;;;;5105064;27;20394;-83
2023/10/26 05:01:47;;;;;;;756.87;79.10;;;;;;;;;;5103561;27;20452;-84
2023/10/26 05:04:13;;;;;;;674.65;75.65;;;;;;;;;;5067152;28;20400;-84
2023/10/26 05:06:39;;;;;;;838.08;87.30;;;;;;;;;;5079296;28;20412;-84
2023/10/26 05:09:05;;;;;;;1033.78;98.95;;;;;;;;;;5099857;27;20429;-84
2023/10/26 05:11:31;;;;;;;833.30;83.53;;;;;;;;;;5105302;27;20396;-83
2023/10/26 05:13:58;;;;;;;885.50;84.97;;;;;;;;;;5118245;27;20403;-84
2023/10/26 05:16:24;;;;;;;836.63;78.93;;;;;;;;;;5101286;27;20830;-84
2023/10/26 05:18:50;;;;;;;822.38;83.97;;;;;;;;;;5123910;27;20951;-82
2023/10/26 05:21:16;;;;;;;677.75;68.07;;;;;;;;;;5117523;27;20481;-83
2023/10/26 05:23:43;;;;;;;700.20;67.40;;;;;;;;;;5098999;27;20394;-83
2023/10/26 05:26:09;;;;;;;698.42;70.05;;;;;;;;;;5117755;27;20507;-84
2023/10/26 05:28:36;;;;;;;639.43;62.27;;;;;;;;;;5081309;27;20418;-83
2023/10/26 05:31:02;;;;;;;576.83;58.78;;;;;;;;;;5102564;27;20476;-83
2023/10/26 05:33:28;;;;;;;590.22;64.55;;;;;;;;;;5111191;27;20409;-83
2023/10/26 05:35:54;;;;;;;508.67;56.83;;;;;;;;;;5096651;27;20416;-83
2023/10/26 05:38:21;;;;;;;474.98;52.65;;;;;;;;;;5098764;27;20442;-82
2023/10/26 05:40:57;;;;;;;401.53;49.13;;;;;;;;;;5102395;27;20430;-83
2023/10/26 05:43:23;;;;;;;525.10;56.65;;;;;;;;;;5110330;27;20424;-83
2023/10/26 05:45:49;;;;;;;509.98;56.67;;;;;;;;;;5095313;28;20411;-82
2023/10/26 05:48:16;;;;;;;466.52;57.25;;;;;;;;;;5090725;27;20427;-82
2023/10/26 05:50:43;;;;;;;367.08;52.03;;;;;;;;;;5097125;27;20465;-82
2023/10/26 05:53:09;;;;;;;523.75;58.72;;;;;;;;;;5110531;27;20410;-82
2023/10/26 05:55:36;;;;;;;395.67;51.25;;;;;;;;;;5094676;27;20781;-83
2023/10/26 05:58:03;;;;;;;574.58;65.10;;;;;;;;;;5107664;27;20438;-82
2023/10/26 06:00:29;;;;;;;553.78;60.42;;;;;;;;;;5118829;27;20421;-82
2023/10/26 06:02:55;;;;;;;546.43;60.50;;;9.10;99.90;;;;;;5115985;27;20531;-81
2023/10/26 06:05:21;;;;;;;597.57;66.53;;;;;;;;;;5114063;27;20444;-81
2023/10/26 06:07:47;;;;;;;604.63;60.75;;;;;;;;;;5113488;27;20414;-82
2023/10/26 06:10:13;;;;;;;592.78;63.13;;;;;;;;;;5097516;27;20410;-81
2023/10/26 06:12:39;;;;;;;521.22;62.38;;;;;;;;;;5111451;27;20400;-82
2023/10/26 06:15:05;;;;;;;599.25;63.42;;;;;;;;;;5087436;28;20669;-82
2023/10/26 06:17:32;;;;;;;491.20;62.72;;;;;;;;;;5084059;27;20910;-81
2023/10/26 06:19:58;;;;;;;594.63;61.10;;;;;;;;;;5112850;27;20414;-81
2023/10/26 06:22:24;;;;;;;722.45;69.85;;;;;;;;;;5109444;27;20397;-83
2023/10/26 06:24:50;;;;;;;642.25;64.38;;;;;;;;;;5116145;27;20413;-83
2023/10/26 06:27:16;;;;;;;592.75;61.13;;;;;;;;;;5096428;27;20399;-82
2023/10/26 06:29:44;;;;;;;658.37;68.07;;;;;;;;;;5113709;27;20421;-82
2023/10/26 06:32:12;;;;;;;696.30;66.55;;;;;;;;;;5087092;27;20441;-82
2023/10/26 06:34:38;;;;;;;635.92;65.47;;;;;;;;;;5109712;27;20962;-81
2023/10/26 06:37:04;;;;;;;568.35;59.97;;;;;;;;;;5106868;27;20410;-82
2023/10/26 06:39:30;;;;;;;856.10;81.80;;;;;;;;;;5113121;27;20402;-83
2023/10/26 06:41:56;;;;;;;470.38;50.15;;;;;;;;;;5107308;27;20483;-83
2023/10/26 06:44:23;;;;;;;576.25;56.88;;;;;;;;;;5091618;28;20408;-83
2023/10/26 06:46:49;;;;;;;415.17;51.27;;;;;;;;;;5103817;27;20401;-82
2023/10/26 06:49:15;;;;;;;492.10;56.85;;;;;;;;;;5107166;28;20433;-81
2023/10/26 06:51:41;;;;;;;525.05;59.05;;;;;;;;;;5077194;27;20408;-82
2023/10/26 06:54:09;;;;;;;482.25;50.42;;;;;;;;;;5107309;28;20405;-82
2023/10/26 06:56:36;;;;;;;466.70;53.75;;;;;;;;;;5099715;27;20486;-82
2023/10/26 06:59:02;;;;;;;448.25;51.38;;;;;;;;;;5117819;27;20398;-81
2023/10/26 07:01:28;;;;;;;385.77;45.42;;;;;;;;;;5094383;28;20493;-81
2023/10/26 07:03:54;;;;;;;356.95;48.50;;;8.50;99.90;;;;;;5114920;28;20403;-81
2023/10/26 07:06:20;;;;;;;444.05;52.38;;;;;;;;;;5085913;27;20399;-82
2023/10/26 07:08:46;;;;;;;512.78;58.58;;;;;;;;;;5110344;28;20396;-76
2023/10/26 07:11:12;;;;;;;396.42;52.17;;;;;;;;;;5089616;28;20758;-75
2023/10/26 07:13:38;;;;;;;412.75;66.25;;;;;;;;;;5113779;28;20790;-76
2023/10/26 07:16:05;;;;;;;295.23;53.47;;;;;;;;;;5091272;28;20420;-76
2023/10/26 07:18:31;;;;;;;139.13;37.38;;;;;;;;;;5093212;28;20417;-76
2023/10/26 07:20:57;;;;;;;298.50;48.23;;;8.70;99.90;;;;;;5099877;27;20823;-75
2023/10/26 07:23:23;;;;;;;227.85;41.53;;;;;;;;;;5115673;27;20546;-75
2023/10/26 07:25:49;;;;;;;283.17;41.45;;;;;;;;;;5099971;27;20407;-83
2023/10/26 07:28:15;;;;;;;377.80;48.70;;;;;;;;;;5123621;27;20402;-82
2023/10/26 07:30:42;;;;;;;290.00;40.17;;;9.00;99.90;;;;;;5116987;27;20441;-82
2023/10/26 07:33:08;;;;;;;306.85;42.95;;;;;;;;;;5099980;27;20474;-82
2023/10/26 07:35:43;;;;;;;313.55;40.63;;;;;;;;;;5090912;27;20430;-82
2023/10/26 07:38:09;;;;;;;300.92;42.60;;;;;;;;;;5118588;27;20478;-81
2023/10/26 07:40:39;;;;;;;368.05;47.17;;;;;;;;;;5125708;27;20838;-83
2023/10/26 07:43:05;;;;;;;503.27;54.45;;;;;;;;;;5100546;27;20439;-82
2023/10/26 07:45:31;;;;;;;511.88;57.92;;;;;;;;;;5125743;27;20992;-83
2023/10/26 07:47:57;;;;;;;651.47;65.47;;;;;;;;;;5121870;27;20435;-83
2023/10/26 07:50:23;;;;;;;671.08;68.63;;;;;;;;;;5121856;27;20428;-84
2023/10/26 07:52:49;;;;;;;596.33;60.08;;;;;;;;;;5102858;27;20514;-81
2023/10/26 07:55:17;;;;;;;548.50;56.45;;;;;;;;;;5093187;27;20416;-81
2023/10/26 07:57:43;;;;;;;636.33;68.53;;;;;;;;;;5105644;27;20440;-82
2023/10/26 08:00:11;;;;;;;503.25;59.58;;;;;;;;;;5085507;27;20398;-82
2023/10/26 08:02:37;;;;;;;575.55;63.42;;;;;;;;;;5104823;27;20391;-83
2023/10/26 08:05:03;;;;;;;441.52;56.47;;;;;;;;;;5100720;27;20426;-82
2023/10/26 08:07:29;;;;;;;450.63;59.00;;;9.30;99.90;;;;;;5101032;27;20747;-83
2023/10/26 08:09:56;;;;;;;559.83;75.07;;;;;;;;;;5084439;27;20409;-81
2023/10/26 08:12:23;;;;;;;561.42;68.88;;;;;;;;;;5084080;27;20402;-83
2023/10/26 08:14:51;;;;;;;523.42;73.32;;;;;;;;;;5093391;27;20483;-81
2023/10/26 08:17:17;;;;;;;387.83;56.90;;;;;;;;;;5112145;27;20405;-82
2023/10/26 08:19:43;;;;;;;419.92;60.58;;;;;;;;;;5126704;27;20411;-81
2023/10/26 08:22:10;;;;;;;358.88;56.70;;;;;;;;;;5115723;27;20396;-82
2023/10/26 08:24:36;;;;;;;313.77;55.78;;;9.70;99.90;;;;;;5105422;27;20403;-82
2023/10/26 08:27:03;;;;;;;374.55;57.92;;;;;;;;;;5099268;27;20430;-81
2023/10/26 08:29:29;;;;;;;403.95;60.28;;;;;;;;;;5100481;27;20406;-81
2023/10/26 08:31:58;;;;;;;456.67;67.85;;;;;;;;;;5108203;27;20970;-81
2023/10/26 08:34:27;;;;;;;451.52;68.45;;;;;;;;;;5117379;27;20471;-81
2023/10/26 08:36:53;;;;;;;402.67;58.65;;;;;;;;;;5117271;27;20398;-81
2023/10/26 08:39:19;;;;;;;368.48;59.45;;;;;;;;;;5103840;27;20961;-79
2023/10/26 08:41:52;;;;;;;306.25;59.05;;;9.90;99.90;;;;;;5110235;27;20412;-82
2023/10/26 08:44:18;;;;;;;347.13;65.10;;;;;;;;;;5127567;27;20419;-82
2023/10/26 08:46:49;;;;;;;222.00;51.72;;;;;;;;;;5125430;27;20754;-81
2023/10/26 08:49:15;;;;;;;166.55;47.28;;;9.70;99.90;;;;;;5096335;27;20395;-81
2023/10/26 08:51:42;;;;;;;166.65;48.63;;;;;;;;;;5108637;27;20404;-79
2023/10/26 08:54:08;;;;;;;147.25;45.13;;;;;;;;;;5083793;27;20398;-80
2023/10/26 08:56:34;;;;;;;158.10;45.63;;;;;;;;;;5120212;27;20399;-81
2023/10/26 08:59:02;;;;;;;170.85;48.95;;;;;;;;;;5105254;27;20537;-74
2023/10/26 09:01:28;;;;;;;138.75;45.50;;;;;;;;;;5099239;27;20402;-74
2023/10/26 09:03:54;;;;;;;198.30;56.60;;;;;;;;;;5116583;27;20503;-75
2023/10/26 09:06:21;;;;;;;141.60;46.22;;;;;;;;;;5125038;27;20407;-75
2023/10/26 09:09:03;;;;;;;127.28;43.90;;;10.00;99.90;;;;;;5097653;27;20434;-75
2023/10/26 09:11:30;;;;;;;128.02;41.97;;;;;;;;;;5115353;27;20745;-75
2023/10/26 09:14:11;;;;;;;139.05;43.72;;;;;;;;;;5099182;27;20410;-75
2023/10/26 09:16:38;;;;;;;89.35;35.80;;;;;;;;;;5092618;27;20398;-75
2023/10/26 09:19:04;;;;;;;97.30;36.85;;;;;;;;;;5114097;27;20803;-75
2023/10/26 09:21:30;;;;;;;80.63;33.72;;;;;;;;;;5088344;27;20493;-74
2023/10/26 09:23:57;;;;;;;76.60;32.25;;;;;;;;;;5117464;27;20398;-82
2023/10/26 09:26:23;;;;;;;76.63;32.92;;;;;;;;;;5089537;27;20969;-82
2023/10/26 09:28:53;;;;;;;73.18;31.27;;;;;;;;;;5117409;27;20413;-82
2023/10/26 09:31:19;;;;;;;83.22;34.10;;;;;;;;;;5100412;27;20410;-83
2023/10/26 09:33:45;;;;;;;73.63;32.80;;;;;;;;;;5116361;27;20423;-83
2023/10/26 09:36:13;;;;;;;76.40;32.53;;;;;;;;;;5116638;27;20487;-83
2023/10/26 09:38:39;;;;;;;72.57;32.50;;;;;;;;;;5102579;27;20395;-83
2023/10/26 09:41:25;;;;;;;68.90;31.00;;;;;;;;;;5131996;27;20515;-84
2023/10/26 09:43:51;;;;;;;76.88;34.17;;;;;;;;;;5129096;27;20399;-84
2023/10/26 09:46:18;;;;;;;74.33;34.87;;;;;;;;;;5108232;27;20772;-84
2023/10/26 09:48:44;;;;;;;61.22;30.55;;;;;;;;;;5084518;27;20423;-83
2023/10/26 09:51:14;;;;;;;63.05;32.88;;;9.70;99.90;;;;;;5118540;27;20399;-84
2023/10/26 09:53:41;;;;;;;62.50;31.40;;;;;;;;;;5117173;27;20398;-85
2023/10/26 09:56:17;;;;;;;57.55;29.38;;;9.60;99.90;;;;;;5106182;27;20441;-85
2023/10/26 09:58:43;;;;;;;57.97;29.48;;;;;;;;;;5118948;27;20906;-85
2023/10/26 10:01:28;;;;;;;60.35;31.02;;;;;;;;;;5106435;27;20383;-85
2023/10/26 10:03:54;;;;;;;71.22;31.83;;;;;;;;;;5102644;27;20419;-83
2023/10/26 10:06:39;;;;;;;66.57;31.70;;;;;;;;;;5131285;27;20476;-84
2023/10/26 10:09:05;;;;;;;57.80;29.85;;;;;;;;;;5119152;27;20880;-83
2023/10/26 10:11:31;;;;;;;52.08;28.48;;;;;;;;;;5113175;27;20917;-84
2023/10/26 10:13:57;;;;;;;53.83;29.58;;;;;;;;;;5085378;27;20902;-84
2023/10/26 10:16:36;;;;;;;50.35;28.15;;;;;;;;;;5112153;27;20494;-84
2023/10/26 10:19:21;;;;;;;50.40;28.43;;;;;;;;;;5108301;27;20399;-85
2023/10/26 10:21:48;;;;;;;53.30;29.23;;;10.30;99.90;;;;;;5105313;27;20487;-86
2023/10/26 10:24:39;;;;;;;49.13;29.67;;;10.20;99.90;;;;;;5115249;27;20972;-85
2023/10/26 10:27:11;;;;;;;45.70;26.37;;;;;;;;;;5100394;27;20393;-85
2023/10/26 10:29:37;;;;;;;51.45;28.58;;;;;;;;;;5130616;27;20401;-84
2023/10/26 10:32:03;;;;;;;47.78;27.08;;;;;;;;;;5098514;27;20395;-84
2023/10/26 10:34:30;;;;;;;50.70;28.60;;;;;;;;;;5114943;27;20422;-86
2023/10/26 10:37:22;;;;;;;54.88;30.38;;;10.70;99.90;;;;;;5098594;27;20411;-85
2023/10/26 10:40:17;;;;;;;46.90;28.03;;;10.50;99.90;;;;;;5072126;27;20414;-85
2023/10/26 10:42:48;;;;;;;46.42;26.88;;;10.90;99.90;;;;;;5081137;27;20510;-83
2023/10/26 10:45:14;;;;;;;45.90;26.55;;;;;;;;;;5115815;27;20407;-83
2023/10/26 10:47:41;;;;;;;42.95;25.45;;;10.90;99.90;;;;;;5118319;27;20742;-85
2023/10/26 10:50:21;;;;;;;44.25;26.55;;;11.10;99.90;;;;;;5123207;27;20772;-83
2023/10/26 10:52:48;;;;;;;43.53;26.73;;;10.60;99.90;;;;;;5135551;27;20526;-85
2023/10/26 10:55:24;;;;;;;44.75;27.08;;;;;;;;;;5099627;28;20423;-84
2023/10/26 10:57:53;;;;;;;46.80;28.63;;;;;;;;;;5119186;27;20397;-83
2023/10/26 11:00:20;;;;;;;47.60;27.70;;;;;;;;;;5135206;27;20472;-84
2023/10/26 11:02:49;;;;;;;50.83;27.75;;;;;;;;;;5094346;27;20390;-84
2023/10/26 11:05:16;;;;;;;51.90;30.13;;;;;;;;;;5094701;28;20958;-83
2023/10/26 11:07:42;;;;;;;54.45;29.92;;;;;;;;;;5089017;28;20395;-83
2023/10/26 11:10:09;;;;;;;44.57;26.77;;;;;;;;;;5114655;28;20409;-83
2023/10/26 11:12:35;;;;;;;39.35;25.58;;;;;;;;;;5115693;28;20396;-82
2023/10/26 11:15:01;;;;;;;44.38;26.05;;;;;;;;;;5115145;28;20789;-83
2023/10/26 11:17:30;;;;;;;38.38;24.65;;;11.00;99.90;;;;;;5097194;28;20406;-83
2023/10/26 11:19:56;;;;;;;37.97;24.83;;;;;;;;;;5114685;28;20459;-83
2023/10/26 11:22:22;;;;;;;39.03;24.77;;;;;;;;;;5097573;28;20889;-83
2023/10/26 11:24:49;;;;;;;42.38;24.55;;;;;;;;;;5097838;28;20440;-83
2023/10/26 11:27:16;;;;;;;40.58;25.13;;;;;;;;;;5097215;28;20456;-83
2023/10/26 11:29:44;;;;;;;37.10;23.40;;;11.20;99.90;;;;;;5105440;28;20474;-82
2023/10/26 11:32:20;;;;;;;36.57;23.67;;;10.90;99.90;;;;;;5097725;28;20414;-83
2023/10/26 11:35:06;;;;;;;33.00;23.05;;;;;;;;;;5096409;27;20419;-83
2023/10/26 11:37:34;;;;;;;30.97;21.67;;;11.00;99.90;;;;;;5085720;28;20453;-82
2023/10/26 11:40:00;;;;;;;31.93;21.30;;;;;;;;;;5107886;28;20533;-82
2023/10/26 11:42:45;;;;;;;34.90;23.60;;;11.10;99.90;;;;;;5123290;27;20392;-82
2023/10/26 11:45:13;;;;;;;31.83;21.17;;;;;;;;;;5113660;28;20414;-82
2023/10/26 11:47:50;;;;;;;30.37;21.20;;;;;;;;;;5106284;28;20515;-83
2023/10/26 11:50:19;;;;;;;35.13;22.75;;;;;;;;;;5116618;28;20774;-82
2023/10/26 11:52:46;;;;;;;30.38;21.25;;;;;;;;;;5116858;28;20411;-82
2023/10/26 11:55:14;;;;;;;26.00;15.73;;;;;;;;;;5102013;28;20420;-82
2023/10/26 11:57:40;;;;;;;32.03;21.10;;;;;;;;;;5097349;28;20443;-82
2023/10/26 12:00:07;;;;;;;31.50;21.08;;;;;;;;;;5114659;27;20516;-82
2023/10/26 12:02:34;;;;;;;30.42;20.95;;;10.90;99.90;;;;;;5092794;28;20451;-82
2023/10/26 12:05:00;;;;;;;32.83;20.17;;;;;;;;;;5097057;27;20416;-82
2023/10/26 12:07:26;;;;;;;31.75;21.33;;;;;;;;;;5098031;28;20922;-82
2023/10/26 12:09:53;;;;;;;31.48;24.35;;;;;;;;;;5115434;27;20410;-82
2023/10/26 12:12:19;;;;;;;27.95;20.08;;;;;;;;;;5115605;27;20398;-82
2023/10/26 12:14:47;;;;;;;26.42;19.48;;;;;;;;;;5097475;27;20942;-82
2023/10/26 12:17:13;;;;;;;27.23;19.25;;;;;;;;;;5112953;27;20770;-81
2023/10/26 12:19:39;;;;;;;27.13;19.80;;;10.90;99.90;;;;;;5098058;27;20410;-82
2023/10/26 12:22:05;;;;;;;28.98;19.73;;;11.40;99.90;;;;;;5114847;27;20406;-81
2023/10/26 12:24:32;;;;;;;30.85;20.25;;;;;;;;;;5083240;27;20406;-81
2023/10/26 12:26:59;;;;;;;26.85;19.25;;;11.20;99.90;;;;;;5095603;27;20411;-81
2023/10/26 12:29:26;;;;;;;26.48;18.15;;;;;;;;;;5080171;27;20418;-82
2023/10/26 12:31:52;;;;;;;24.13;17.70;;;;;;;;;;5093981;27;20414;-83
2023/10/26 12:34:19;;;;;;;24.38;17.92;;;;;;;;;;5098541;27;20898;-82
2023/10/26 12:36:48;;;;;;;24.92;17.90;;;;;;;;;;5110660;27;20499;-82
2023/10/26 12:39:14;;;;;;;24.55;17.65;;;;;;;;;;5105290;27;21153;-82
2023/10/26 12:41:40;;;;;;;25.53;18.20;;;;;;;;;;5120533;27;20414;-83
2023/10/26 12:44:07;;;;;;;25.00;17.67;;;;;;;;;;5114926;27;20727;-82
2023/10/26 12:46:33;;;;;;;25.85;18.77;;;;;;;;;;5098426;27;20436;-83
2023/10/26 12:48:59;;;;;;;27.52;19.05;;;;;;;;;;5099648;27;20942;-82
2023/10/26 12:51:25;;;;;;;28.42;20.38;;;;;;;;;;5092428;27;20525;-82
2023/10/26 12:53:51;;;;;;;29.67;20.77;;;;;;;;;;5110473;27;20506;-82
2023/10/26 12:56:18;;;;;;;30.20;22.05;;;;;;;;;;5117177;27;20417;-82
2023/10/26 12:58:44;;;;;;;30.73;21.20;;;;;;;;;;5120880;27;20463;-81
2023/10/26 13:01:10;;;;;;;30.07;21.00;;;;;;;;;;5124107;27;20395;-82
2023/10/26 13:03:35;;;;;;;29.73;20.85;;;11.20;99.90;;;;;;5097846;27;20421;-82
2023/10/26 13:06:01;;;;;;;29.73;20.33;;;;;;;;;;5104106;27;20478;-82
2023/10/26 13:08:28;;;;;;;29.15;21.17;;;;;;;;;;5097882;27;20421;-81
2023/10/26 13:10:54;;;;;;;28.33;20.15;;;;;;;;;;5116486;27;20441;-80
2023/10/26 13:13:20;;;;;;;29.48;22.05;;;;;;;;;;5117844;27;20411;-80
2023/10/26 13:15:46;;;;;;;29.25;20.80;;;;;;;;;;5099924;27;20414;-81
2023/10/26 13:18:12;;;;;;;28.75;20.88;;;;;;;;;;5119996;27;20459;-81
2023/10/26 13:20:38;;;;;;;28.05;19.75;;;;;;;;;;5125082;27;20870;-81
2023/10/26 13:23:04;;;;;;;28.15;20.10;;;;;;;;;;5110013;27;20440;-81
2023/10/26 13:25:30;;;;;;;27.63;20.27;;;11.70;99.90;;;;;;5119125;27;20400;-81
2023/10/26 13:27:59;;;;;;;26.65;19.70;;;;;;;;;;5116096;27;20413;-81
2023/10/26 13:30:26;;;;;;;29.70;23.67;;;;;;;;;;5115943;27;20410;-81
2023/10/26 13:32:53;;;;;;;27.92;20.35;;;;;;;;;;5100938;27;20402;-82
2023/10/26 13:35:18;;;;;;;26.13;20.88;;;11.40;99.90;;;;;;5116451;27;20406;-79
2023/10/26 13:37:44;;;;;;;28.25;22.40;;;11.50;99.90;;;;;;5098456;27;20409;-80
2023/10/26 13:40:10;;;;;;;27.63;20.13;;;;;;;;;;5124824;27;20411;-82
2023/10/26 13:42:36;;;;;;;28.42;20.50;;;;;;;;;;5123123;27;20754;-81
2023/10/26 13:45:02;;;;;;;26.93;20.23;;;11.70;99.90;;;;;;5117786;27;20395;-80
2023/10/26 13:47:28;;;;;;;26.73;20.63;;;11.90;99.90;;;;;;5082880;27;20762;-81
2023/10/26 13:49:54;;;;;;;28.63;20.23;;;;;;;;;;5118225;27;20398;-81
2023/10/26 13:52:20;;;;;;;27.95;20.85;;;;;;;;;;5102249;27;20410;-80
2023/10/26 13:54:46;;;;;;;26.80;20.08;;;;;;;;;;5099098;27;20831;-80
2023/10/26 13:57:13;;;;;;;26.30;19.98;;;;;;;;;;5106130;27;20435;-80